sensor_id;sensor_type;location;lat;lon;timestamp;P1;durP1;ratioP1;P2;durP2;ratioP2
81725;SDS011;71135;16.738;-14.648;2023-07-08T08:36:40;5.75;;;3.92;;
81725;SDS011;71135;16.738;-14.648;2023-07-08T08:39:11;6.00;;;3.90;;
81725;SDS011;71135;16.738;-14.648;2023-07-08T08:41:41;5.72;;;4.07;;
81725;SDS011;71135;16.738;-14.648;2023-07-08T08:44:12;5.85;;;3.80;;
81725;SDS011;71135;16.738;-14.648;2023-07-08T08:46:58;5.57;;;3.72;;
81725;SDS011;71135;16.738;-14.648;2023-07-08T08:49:44;6.50;;;4.00;;
81725;SDS011;71135;16.738;-14.648;2023-07-08T08:59:30;5.75;;;4.40;;
81725;SDS011;71135;16.738;-14.648;2023-07-08T09:16:36;7.78;;;4.43;;
81725;SDS011;71135;16.738;-14.648;2023-07-08T09:19:43;7.95;;;4.82;;
81725;SDS011;71135;16.738;-14.648;2023-07-08T09:29:25;4.88;;;4.25;;
81725;SDS011;71135;16.738;-14.648;2023-07-08T09:31:58;5.53;;;4.55;;
81725;SDS011;71135;16.738;-14.648;2023-07-08T09:35:02;6.15;;;4.45;;
81725;SDS011;71135;16.738;-14.648;2023-07-08T09:38:43;6.97;;;4.10;;
81725;SDS011;71135;16.738;-14.648;2023-07-08T09:48:01;3.90;;;3.13;;
81725;SDS011;71135;16.738;-14.648;2023-07-08T09:50:33;5.80;;;4.47;;
81725;SDS011;71135;16.738;-14.648;2023-07-08T09:56:27;5.80;;;3.75;;
81725;SDS011;71135;16.738;-14.648;2023-07-08T09:58:57;6.03;;;3.97;;
81725;SDS011;71135;16.738;-14.648;2023-07-08T10:01:27;9.48;;;6.18;;
81725;SDS011;71135;16.738;-14.648;2023-07-08T10:04:00;6.28;;;4.72;;
81725;SDS011;71135;16.738;-14.648;2023-07-08T10:06:30;7.03;;;4.20;;
81725;SDS011;71135;16.738;-14.648;2023-07-08T10:09:01;6.00;;;3.90;;
81725;SDS011;71135;16.738;-14.648;2023-07-08T10:11:35;4.03;;;3.00;;
81725;SDS011;71135;16.738;-14.648;2023-07-08T10:14:11;6.40;;;4.50;;
81725;SDS011;71135;16.738;-14.648;2023-07-08T10:16:48;4.63;;;4.03;;
81725;SDS011;71135;16.738;-14.648;2023-07-08T10:19:20;5.35;;;4.10;;
81725;SDS011;71135;16.738;-14.648;2023-07-08T10:22:05;8.65;;;3.97;;
81725;SDS011;71135;16.738;-14.648;2023-07-08T10:24:58;5.65;;;3.85;;
81725;SDS011;71135;16.738;-14.648;2023-07-08T10:27:39;5.60;;;4.03;;
81725;SDS011;71135;16.738;-14.648;2023-07-08T10:30:20;5.93;;;3.90;;
81725;SDS011;71135;16.738;-14.648;2023-07-08T10:38:57;7.30;;;4.57;;
81725;SDS011;71135;16.738;-14.648;2023-07-08T10:41:53;8.27;;;4.15;;
81725;SDS011;71135;16.738;-14.648;2023-07-08T10:44:34;6.60;;;4.38;;
81725;SDS011;71135;16.738;-14.648;2023-07-08T10:47:10;5.30;;;4.20;;
81725;SDS011;71135;16.738;-14.648;2023-07-08T10:49:55;9.10;;;3.95;;
81725;SDS011;71135;16.738;-14.648;2023-07-08T10:52:37;6.47;;;4.20;;
81725;SDS011;71135;16.738;-14.648;2023-07-08T10:55:20;7.95;;;4.10;;
81725;SDS011;71135;16.738;-14.648;2023-07-08T11:01:14;6.47;;;4.15;;
81725;SDS011;71135;16.738;-14.648;2023-07-08T11:03:59;8.75;;;4.88;;
81725;SDS011;71135;16.738;-14.648;2023-07-08T11:06:44;7.30;;;4.38;;
81725;SDS011;71135;16.738;-14.648;2023-07-08T11:09:20;6.30;;;4.07;;
81725;SDS011;71135;16.738;-14.648;2023-07-08T11:11:55;8.55;;;4.20;;
81725;SDS011;71135;16.738;-14.648;2023-07-08T11:14:30;5.07;;;4.57;;
81725;SDS011;71135;16.738;-14.648;2023-07-08T11:17:10;6.18;;;4.43;;
81725;SDS011;71135;16.738;-14.648;2023-07-08T11:19:45;4.85;;;4.30;;
81725;SDS011;71135;16.738;-14.648;2023-07-08T11:22:21;6.45;;;4.63;;
81725;SDS011;71135;16.738;-14.648;2023-07-08T11:24:53;4.88;;;4.35;;
81725;SDS011;71135;16.738;-14.648;2023-07-08T11:27:27;6.25;;;5.00;;
81725;SDS011;71135;16.738;-14.648;2023-07-08T11:30:02;8.68;;;5.60;;
81725;SDS011;71135;16.738;-14.648;2023-07-08T11:32:37;6.50;;;4.35;;
81725;SDS011;71135;16.738;-14.648;2023-07-08T11:35:13;7.18;;;4.95;;
81725;SDS011;71135;16.738;-14.648;2023-07-08T11:37:48;5.32;;;4.70;;
81725;SDS011;71135;16.738;-14.648;2023-07-08T11:40:22;7.57;;;4.90;;
81725;SDS011;71135;16.738;-14.648;2023-07-08T11:42:52;7.57;;;4.50;;
81725;SDS011;71135;16.738;-14.648;2023-07-08T11:45:30;6.53;;;4.80;;
81725;SDS011;71135;16.738;-14.648;2023-07-08T11:48:04;6.55;;;5.38;;
81725;SDS011;71135;16.738;-14.648;2023-07-08T11:50:36;6.70;;;5.00;;
81725;SDS011;71135;16.738;-14.648;2023-07-08T11:53:08;7.70;;;5.55;;
81725;SDS011;71135;16.738;-14.648;2023-07-08T11:55:56;9.38;;;4.80;;
81725;SDS011;71135;16.738;-14.648;2023-07-08T11:58:27;6.40;;;5.05;;
81725;SDS011;71135;16.738;-14.648;2023-07-08T12:00:59;6.82;;;5.55;;
81725;SDS011;71135;16.738;-14.648;2023-07-08T12:03:34;6.90;;;5.00;;
81725;SDS011;71135;16.738;-14.648;2023-07-08T12:09:13;8.85;;;6.05;;
81725;SDS011;71135;16.738;-14.648;2023-07-08T12:11:47;6.72;;;5.55;;
81725;SDS011;71135;16.738;-14.648;2023-07-08T12:14:20;7.10;;;5.18;;
81725;SDS011;71135;16.738;-14.648;2023-07-08T16:56:20;10.68;;;5.55;;
81725;SDS011;71135;16.738;-14.648;2023-07-08T16:58:56;7.95;;;5.35;;
81725;SDS011;71135;16.738;-14.648;2023-07-08T17:05:11;11.10;;;5.50;;
81725;SDS011;71135;16.738;-14.648;2023-07-08T17:07:55;7.18;;;5.07;;
81725;SDS011;71135;16.738;-14.648;2023-07-08T17:17:15;6.45;;;5.78;;
81725;SDS011;71135;16.738;-14.648;2023-07-08T17:19:54;6.55;;;5.38;;
81725;SDS011;71135;16.738;-14.648;2023-07-08T17:22:32;8.13;;;5.72;;
81725;SDS011;71135;16.738;-14.648;2023-07-08T18:03:18;9.02;;;5.25;;
81725;SDS011;71135;16.738;-14.648;2023-07-08T19:25:33;10.30;;;6.07;;
81725;SDS011;71135;16.738;-14.648;2023-07-08T19:28:42;8.18;;;5.43;;
81725;SDS011;71135;16.738;-14.648;2023-07-08T19:31:19;7.25;;;5.90;;
81725;SDS011;71135;16.738;-14.648;2023-07-08T19:34:08;8.02;;;5.72;;
81725;SDS011;71135;16.738;-14.648;2023-07-08T19:36:59;10.93;;;5.93;;
81725;SDS011;71135;16.738;-14.648;2023-07-08T19:39:38;9.65;;;6.43;;
81725;SDS011;71135;16.738;-14.648;2023-07-08T19:47:59;9.75;;;6.18;;
81725;SDS011;71135;16.738;-14.648;2023-07-08T19:54:00;9.43;;;5.95;;
81725;SDS011;71135;16.738;-14.648;2023-07-08T20:49:07;11.73;;;6.93;;
81725;SDS011;71135;16.738;-14.648;2023-07-08T20:52:43;7.82;;;6.53;;
81725;SDS011;71135;16.738;-14.648;2023-07-08T21:25:28;8.15;;;6.22;;
81725;SDS011;71135;16.738;-14.648;2023-07-08T21:28:25;10.45;;;7.07;;
81725;SDS011;71135;16.738;-14.648;2023-07-08T21:31:39;8.63;;;6.60;;
81725;SDS011;71135;16.738;-14.648;2023-07-08T21:37:45;11.50;;;6.50;;
81725;SDS011;71135;16.738;-14.648;2023-07-08T21:40:29;9.40;;;7.05;;
81725;SDS011;71135;16.738;-14.648;2023-07-08T21:43:14;11.82;;;7.47;;
81725;SDS011;71135;16.738;-14.648;2023-07-08T21:45:56;12.73;;;7.35;;
81725;SDS011;71135;16.738;-14.648;2023-07-08T21:52:10;10.10;;;7.03;;
81725;SDS011;71135;16.738;-14.648;2023-07-08T21:54:47;10.73;;;7.20;;
81725;SDS011;71135;16.738;-14.648;2023-07-08T22:05:54;10.30;;;7.30;;
81725;SDS011;71135;16.738;-14.648;2023-07-08T22:11:50;10.38;;;6.80;;
81725;SDS011;71135;16.738;-14.648;2023-07-08T22:24:37;8.80;;;6.88;;
81725;SDS011;71135;16.738;-14.648;2023-07-08T22:31:13;10.02;;;7.07;;
